»·PEaware :: N3TA KGEG-KHQM

N3TA :: KGEG-KHQM

FLIGHT INFORMATION

Flight Status: Arrived
Operator: Privately registered:
United States
More flights under this callsign
Pilot: Oliver L. (19934)
Aircraft: CESSNA 510 CITATION MUSTANG
(C510)
More flights by this aircraft type
Origin: KGEG Spokane Intl
United States
Destination: KHQM Bowerman
United States
More flights between these airports :: More routes between these airports
Route: GEG6 MWH J34 OLM
File this flight plan on PilotEdge
Remarks:
Altitude:
(Current/Filed)
16,000ft
Speed:
(Current/Filed)
300kts
Departed: 17-May-20 09:00 AM
Arrived: 17-May-20 09:55 AM
Distance/Time
Traveled:
263nm/0:55
Distance/Time
To Go:
Arrived

Flight Plot

Page will automatically refresh every two minutes.

Flight plan parsing failed; only flown route is shown


Map Options




Map Legend


Flown Route
Filed Route
Departure Airport
Arrival Airport
Navaid (VOR, NDB)
Fix

Horizontal Profiles

Position Reports

Time Latitude Longitude Heading Altitude Ground
Speed
17-May-20 08:22 47.620491 -117.527665 269 2380ft 0kts
17-May-20 08:23 47.620491 -117.527665 269 2380ft 0kts
17-May-20 08:24 47.620491 -117.527665 269 2380ft 0kts
17-May-20 08:25 47.620491 -117.527665 269 2380ft 0kts
17-May-20 08:26 47.620491 -117.527665 269 2380ft 0kts
17-May-20 08:27 47.620491 -117.527665 269 2380ft 0kts
17-May-20 08:28 47.620491 -117.527665 269 2380ft 0kts
17-May-20 08:29 47.620491 -117.527665 269 2380ft 0kts
17-May-20 08:30 47.620491 -117.527665 269 2380ft 0kts
17-May-20 08:31 47.620491 -117.527665 269 2380ft 0kts
17-May-20 08:32 47.620491 -117.527665 269 2380ft 0kts
17-May-20 08:33 47.620491 -117.527665 269 2380ft 0kts
17-May-20 08:34 47.620491 -117.527665 269 2380ft 0kts
17-May-20 08:35 47.620491 -117.527665 269 2380ft 0kts
17-May-20 08:36 47.620491 -117.527665 269 2380ft 0kts
17-May-20 08:37 47.620491 -117.527665 269 2380ft 0kts
17-May-20 08:38 47.620491 -117.527665 269 2380ft 0kts
17-May-20 08:39 47.620491 -117.527665 269 2380ft 0kts
17-May-20 08:40 47.620491 -117.527665 269 2380ft 0kts
17-May-20 08:41 47.620491 -117.527665 269 2380ft 0kts
17-May-20 08:42 47.620491 -117.527665 269 2380ft 0kts
17-May-20 08:43 47.620491 -117.527665 269 2380ft 0kts
17-May-20 08:44 47.620491 -117.527665 269 2380ft 0kts
17-May-20 08:45 47.620491 -117.527665 269 2380ft 0kts
17-May-20 08:46 47.620491 -117.527665 269 2380ft 0kts
17-May-20 08:47 47.620491 -117.527665 269 2380ft 0kts
17-May-20 08:48 47.620491 -117.527665 269 2380ft 0kts
17-May-20 08:49 47.620491 -117.527665 269 2380ft 0kts
17-May-20 08:50 47.620491 -117.527665 269 2380ft 0kts
17-May-20 08:51 47.620491 -117.527665 269 2380ft 0kts
17-May-20 08:52 47.620491 -117.527665 269 2380ft 0kts
17-May-20 08:53 47.620898 -117.528868 348 2380ft 0kts
17-May-20 08:54 47.625512 -117.523359 44 2380ft 36kts
17-May-20 08:55 47.630447 -117.517350 314 2380ft 0kts
17-May-20 08:56 47.630447 -117.517350 314 2380ft 0kts
17-May-20 08:57 47.630447 -117.517350 314 2380ft 0kts
17-May-20 08:58 47.630447 -117.517350 314 2380ft 0kts
17-May-20 08:59 47.620722 -117.534374 223 2459ft 176kts
17-May-20 09:01 47.584085 -117.592772 223 4044ft 190kts
17-May-20 09:02 47.545894 -117.652934 223 6542ft 232kts
17-May-20 09:03 47.496988 -117.727760 223 9082ft 261kts
17-May-20 09:04 47.445332 -117.805014 223 11608ft 270kts
17-May-20 09:05 47.390276 -117.885719 223 13002ft 303kts
17-May-20 09:06 47.326188 -117.979266 223 12994ft 328kts
17-May-20 09:07 47.305136 -118.109382 261 12949ft 339kts
17-May-20 09:08 47.295721 -118.245724 261 13399ft 325kts
17-May-20 09:09 47.286511 -118.374356 260 15839ft 310kts
17-May-20 09:10 47.276404 -118.508844 260 15977ft 344kts
17-May-20 09:11 47.265528 -118.649967 260 15967ft 350kts
17-May-20 09:12 47.254238 -118.792719 259 15968ft 351kts
17-May-20 09:13 47.242678 -118.936324 259 15967ft 354kts
17-May-20 09:14 47.230658 -119.081917 258 15967ft 360kts
17-May-20 09:15 47.218204 -119.229421 258 15966ft 362kts
17-May-20 09:15 47.208873 -119.352877 261 15960ft 364kts
17-May-20 09:17 47.199668 -119.526424 261 15941ft 364kts
17-May-20 09:18 47.191524 -119.675715 261 15940ft 364kts
17-May-20 09:18 47.184620 -119.799347 261 15939ft 363kts
17-May-20 09:19 47.176139 -119.947954 261 15939ft 363kts
17-May-20 09:21 47.166024 -120.120866 261 16000ft 363kts
17-May-20 09:21 47.158744 -120.242777 260 15959ft 352kts
17-May-20 09:22 47.150094 -120.384658 260 15947ft 345kts
17-May-20 09:23 47.141321 -120.525375 260 15939ft 344kts
17-May-20 09:24 47.132420 -120.665397 260 15939ft 344kts
17-May-20 09:25 47.123433 -120.803967 260 15943ft 343kts
17-May-20 09:26 47.114180 -120.944033 260 15986ft 343kts
17-May-20 09:27 47.104752 -121.083537 260 15994ft 343kts
17-May-20 09:28 47.095143 -121.223229 260 16003ft 342kts
17-May-20 09:29 47.085417 -121.362916 260 16002ft 343kts
17-May-20 09:30 47.075532 -121.502358 260 16002ft 343kts
17-May-20 09:31 47.065895 -121.642538 261 16002ft 343kts
17-May-20 09:32 47.056167 -121.781964 260 16012ft 343kts
17-May-20 09:33 47.046275 -121.921235 260 16027ft 343kts
17-May-20 09:34 47.036214 -122.060479 260 16029ft 343kts
17-May-20 09:35 47.025997 -122.199495 260 16029ft 342kts
17-May-20 09:36 47.015866 -122.335458 260 16026ft 322kts
17-May-20 09:37 47.006110 -122.464109 260 16023ft 313kts
17-May-20 09:38 46.996424 -122.589823 260 16009ft 308kts
17-May-20 09:39 46.986733 -122.713700 259 16008ft 304kts
17-May-20 09:40 46.977047 -122.835897 259 16020ft 295kts
17-May-20 09:41 46.972071 -122.954249 266 16025ft 291kts
17-May-20 09:42 46.972367 -123.071500 267 15025ft 270kts
17-May-20 09:43 46.970581 -123.176438 265 12952ft 248kts
17-May-20 09:44 46.967742 -123.269274 265 10419ft 222kts
17-May-20 09:45 46.964914 -123.359215 265 7900ft 218kts
17-May-20 09:46 46.975139 -123.442342 305 5394ft 217kts
17-May-20 09:47 47.010340 -123.512231 305 2991ft 206kts
17-May-20 09:48 47.011860 -123.585834 260 2297ft 186kts
17-May-20 09:49 47.003488 -123.661530 259 2295ft 188kts
17-May-20 09:50 46.994550 -123.737773 259 2181ft 194kts
17-May-20 09:51 46.985775 -123.812560 259 1861ft 165kts
17-May-20 09:52 46.978751 -123.872190 259 942ft 128kts
17-May-20 09:53 46.973474 -123.917613 259 193ft 110kts
17-May-20 09:54 46.970091 -123.945776 268 23ft 18kts
17-May-20 09:55 46.971048 -123.945923 49 23ft 4kts
17-May-20 09:56 46.971775 -123.940291 80 23ft 17kts
17-May-20 09:57 46.972725 -123.932518 79 23ft 14kts
17-May-20 09:58 46.973522 -123.930210 81 23ft 0kts

Navigation Log

Ident Type
Flight plan parsing failed, navigation log unavailable